createdAt,value
2018-05-14T03:21:51.225Z,94507.23
2018-05-14T03:24:19.799Z,94515.81
2018-05-14T03:26:48.390Z,94514.14
2018-05-14T03:29:16.979Z,94515.27
2018-05-14T03:31:45.603Z,94511.30
2018-05-14T03:34:14.236Z,94510.48
2018-05-14T03:36:42.828Z,94515.58
2018-05-14T03:39:11.419Z,94515.27
2018-05-14T03:41:40.006Z,94520.86
2018-05-14T03:44:08.590Z,94516.35
2018-05-14T03:46:37.196Z,94515.45
2018-05-14T03:49:05.842Z,94509.45
2018-05-14T03:51:34.418Z,94515.33
2018-05-14T03:54:03.015Z,94518.28
2018-05-14T03:56:31.605Z,94516.69
2018-05-14T03:59:11.249Z,94520.67
2018-05-14T04:01:50.827Z,94512.01
2018-05-14T04:04:30.470Z,94512.56
2018-05-14T04:06:58.723Z,94513.56
2018-05-14T04:09:27.375Z,94514.77
2018-05-14T04:11:55.957Z,94515.16
2018-05-14T04:14:24.605Z,94519.84
2018-05-14T04:16:53.210Z,94525.23
2018-05-14T04:19:21.786Z,94530.28
2018-05-14T04:21:50.423Z,94530.45
2018-05-14T04:24:19.094Z,94526.31
2018-05-14T04:26:47.897Z,94534.77
2018-05-14T04:29:17.760Z,94538.97
2018-05-14T04:31:46.408Z,94544.55
2018-05-14T04:34:15.035Z,94541.66
2018-05-14T04:36:43.629Z,94544.80
2018-05-14T04:39:12.205Z,94542.38
2018-05-14T04:41:40.787Z,94549.94
2018-05-14T04:44:09.462Z,94549.74
2018-05-14T04:46:38.058Z,94556.09
2018-05-14T04:49:06.645Z,94560.59
2018-05-14T04:51:35.228Z,94557.80
2018-05-14T04:54:03.811Z,94561.38
2018-05-14T04:56:32.370Z,94561.89
2018-05-14T04:59:01.013Z,94567.98
2018-05-14T05:01:29.612Z,94570.64
2018-05-14T05:03:58.223Z,94568.56
2018-05-14T05:06:26.782Z,94572.17
2018-05-14T05:08:55.356Z,94573.66
2018-05-14T05:11:23.971Z,94572.05
2018-05-14T05:13:52.699Z,94579.78
2018-05-14T05:16:20.942Z,94582.97
2018-05-14T05:18:49.528Z,94579.43
2018-05-14T05:21:18.098Z,94583.50
2018-05-14T05:23:46.687Z,94578.72
2018-05-14T05:26:15.272Z,94585.20
2018-05-14T05:28:43.867Z,94582.78
2018-05-14T05:31:12.439Z,94577.54
2018-05-14T05:33:41.006Z,94576.98
2018-05-14T05:36:09.583Z,94575.91
2018-05-14T05:38:38.151Z,94580.22
2018-05-14T05:41:06.711Z,94575.27
2018-05-14T05:43:35.288Z,94582.25
2018-05-14T05:46:09.127Z,94583.72
2018-05-14T05:48:37.959Z,94580.01
2018-05-14T05:51:06.255Z,94591.89
2018-05-14T05:53:34.894Z,94589.03
2018-05-14T05:56:03.452Z,94595.57
2018-05-14T05:58:32.012Z,94589.06
2018-05-14T06:01:00.645Z,94594.58
2018-05-14T06:03:29.210Z,94586.16
2018-05-14T06:05:57.817Z,94589.89
2018-05-14T06:08:26.447Z,94587.52
2018-05-14T06:10:55.023Z,94591.96
2018-05-14T06:13:23.588Z,94588.95
2018-05-14T06:15:52.148Z,94587.74
2018-05-14T06:18:20.821Z,94582.20
2018-05-14T06:20:49.446Z,94589.05
2018-05-14T06:23:18.011Z,94584.68
2018-05-14T06:25:46.574Z,94579.09
2018-05-14T06:28:15.169Z,94584.93
2018-05-14T06:30:43.756Z,94586.14
2018-05-14T06:33:12.327Z,94582.37
2018-05-14T06:35:41.943Z,94578.89
2018-05-14T06:38:10.559Z,94581.09
2018-05-14T06:40:39.116Z,94584.89
2018-05-14T06:43:07.680Z,94587.25
2018-05-14T06:45:36.246Z,94586.98
2018-05-14T06:48:04.858Z,94586.55
2018-05-14T06:50:33.463Z,94588.27
2018-05-14T06:53:02.023Z,94584.81
2018-05-14T06:55:30.584Z,94585.30
2018-05-14T06:57:59.246Z,94581.42
2018-05-14T07:00:27.843Z,94585.37
2018-05-14T07:02:56.483Z,94584.19
2018-05-14T07:05:25.040Z,94586.36
2018-05-14T07:07:53.598Z,94584.05
2018-05-14T07:10:22.208Z,94585.60
2018-05-14T07:12:50.762Z,94586.11
2018-05-14T07:15:19.328Z,94595.55
2018-05-14T07:17:47.934Z,94590.75
2018-05-14T07:20:16.499Z,94589.44
2018-05-14T07:22:45.071Z,94590.53
2018-05-14T07:25:13.678Z,94594.72
2018-05-14T07:27:42.319Z,94598.27
2018-05-14T07:30:11.039Z,94595.21
2018-05-14T07:32:39.717Z,94590.22
2018-05-14T07:35:08.292Z,94586.84
2018-05-14T07:37:36.875Z,94583.77
2018-05-14T07:40:05.441Z,94584.75
2018-05-14T07:42:34.020Z,94589.22
2018-05-14T07:45:02.660Z,94599.66
2018-05-14T07:47:31.280Z,94597.19
2018-05-14T07:49:59.917Z,94591.36
2018-05-14T07:52:28.606Z,94593.52
2018-05-14T07:54:57.464Z,94590.88
2018-05-14T07:57:26.032Z,94596.78
2018-05-14T07:59:55.245Z,94599.73
2018-05-14T08:02:23.983Z,94602.26
2018-05-14T08:04:52.618Z,94606.77
2018-05-14T08:07:21.272Z,94600.52
2018-05-14T08:09:49.839Z,94591.31
2018-05-14T08:12:18.432Z,94580.83
2018-05-14T08:14:47.065Z,94590.52
2018-05-14T08:17:15.700Z,94584.00
2018-05-14T08:19:44.313Z,94589.73
2018-05-14T08:22:12.915Z,94591.45
2018-05-14T08:24:41.473Z,94591.80
2018-05-14T08:27:10.067Z,94595.27
2018-05-14T08:29:38.679Z,94586.58
2018-05-14T08:32:07.274Z,94590.75
2018-05-14T08:34:35.831Z,94583.81
2018-05-14T08:37:04.255Z,94585.48
2018-05-14T08:39:32.935Z,94582.77
2018-05-14T08:42:01.514Z,94580.50
2018-05-14T08:44:30.100Z,94576.69
2018-05-14T08:46:58.708Z,94574.97
2018-05-14T08:49:27.274Z,94580.34
2018-05-14T08:51:55.883Z,94574.14
2018-05-14T08:54:24.558Z,94566.92
2018-05-14T08:56:53.298Z,94564.06
2018-05-14T08:59:21.872Z,94559.84
2018-05-14T09:01:50.467Z,94567.39
2018-05-14T09:04:19.072Z,94567.81
2018-05-14T09:06:47.712Z,94571.44
2018-05-14T09:09:16.295Z,94564.35
2018-05-14T09:11:44.891Z,94573.83
2018-05-14T09:14:13.556Z,94564.66
2018-05-14T09:16:42.132Z,94564.16
2018-05-14T09:19:10.729Z,94563.52
2018-05-14T09:21:39.333Z,94563.94
2018-05-14T09:24:07.926Z,94564.02
2018-05-14T09:26:36.498Z,94563.58
2018-05-14T09:29:05.067Z,94561.53
2018-05-14T09:31:33.640Z,94554.98
2018-05-14T09:34:02.221Z,94551.99
2018-05-14T09:36:30.789Z,94559.70
2018-05-14T09:38:59.454Z,94562.39
2018-05-14T09:41:28.076Z,94559.77
2018-05-14T09:43:56.642Z,94555.37
2018-05-14T09:46:25.211Z,94543.20
2018-05-14T09:48:53.796Z,94544.16
2018-05-14T09:51:22.376Z,94542.84
2018-05-14T09:53:50.955Z,94535.09
2018-05-14T09:56:19.560Z,94536.63
2018-05-14T09:58:48.147Z,94540.41
2018-05-14T10:01:16.738Z,94541.97
2018-05-14T10:03:45.373Z,94550.14
2018-05-14T10:06:13.934Z,94549.23
2018-05-14T10:08:42.538Z,94560.50
2018-05-14T10:11:11.108Z,94557.23
2018-05-14T10:13:39.680Z,94561.78
2018-05-14T10:16:08.277Z,94561.13
2018-05-14T10:18:36.835Z,94564.88
2018-05-14T10:21:05.409Z,94573.69
2018-05-14T10:23:34.006Z,94578.17
2018-05-14T10:26:02.584Z,94571.81
2018-05-14T10:28:31.215Z,94563.12
2018-05-14T10:30:59.775Z,94569.55
2018-05-14T10:33:28.360Z,94575.27
2018-05-14T10:35:56.642Z,94581.66
2018-05-14T10:38:25.197Z,94579.20
2018-05-14T10:40:53.819Z,94582.48
2018-05-14T10:43:22.385Z,94572.39
2018-05-14T10:45:50.971Z,94584.37
2018-05-14T10:48:19.555Z,94579.42
2018-05-14T10:50:48.148Z,94584.72
2018-05-14T10:53:16.734Z,94592.91
2018-05-14T10:55:45.304Z,94598.02
2018-05-14T10:58:13.889Z,94595.38
2018-05-14T11:00:42.477Z,94593.91
2018-05-14T11:03:11.082Z,94593.77
2018-05-14T11:05:39.703Z,94598.66
2018-05-14T11:08:08.268Z,94600.11
2018-05-14T11:10:36.638Z,94602.92
2018-05-14T11:13:05.042Z,94600.39
2018-05-14T11:15:33.596Z,94603.73
2018-05-14T11:18:02.160Z,94615.83
2018-05-14T11:20:30.719Z,94619.55
2018-05-14T11:22:59.361Z,94621.70
2018-05-14T11:25:27.936Z,94623.65
2018-05-14T11:27:56.614Z,94627.53
2018-05-14T11:30:25.116Z,94631.53
2018-05-14T11:32:53.669Z,94625.54
2018-05-14T11:35:22.326Z,94630.44
2018-05-14T11:37:51.004Z,94635.07
2018-05-14T11:40:19.569Z,94637.56
2018-05-14T11:42:48.180Z,94652.73
2018-05-14T11:45:16.767Z,94647.07
2018-05-14T11:47:45.338Z,94633.09
2018-05-14T11:50:13.914Z,94614.48
2018-05-14T11:52:42.493Z,94608.47
2018-05-14T11:55:11.048Z,94599.13
2018-05-14T11:57:39.613Z,94597.05
2018-05-14T12:00:10.296Z,94600.78
2018-05-14T12:02:38.854Z,94592.78
2018-05-14T12:05:07.423Z,94584.66
2018-05-14T12:07:36.016Z,94581.28
2018-05-14T12:10:04.675Z,94584.72
2018-05-14T12:12:33.253Z,94576.81
2018-05-14T12:15:01.825Z,94574.41
2018-05-14T12:17:30.431Z,94567.01
2018-05-14T12:19:59.026Z,94562.98
2018-05-14T12:22:27.591Z,94558.55
2018-05-14T12:24:56.147Z,94550.53
2018-05-14T12:27:24.708Z,94554.23
2018-05-14T12:29:53.298Z,94557.57
2018-05-14T12:32:21.880Z,94550.00
2018-05-14T12:34:50.460Z,94552.37
2018-05-14T12:37:19.047Z,94552.14
2018-05-14T12:39:47.625Z,94547.74
2018-05-14T12:42:16.213Z,94547.03
2018-05-14T12:44:44.797Z,94549.51
2018-05-14T12:47:13.374Z,94542.81
2018-05-14T12:49:41.631Z,94545.14
2018-05-14T12:52:10.198Z,94538.17
2018-05-14T12:54:38.800Z,94544.37
2018-05-14T12:57:08.031Z,94543.67
2018-05-14T12:59:36.785Z,94545.54
2018-05-14T13:02:05.132Z,94534.97
2018-05-14T13:04:33.719Z,94538.70
2018-05-14T13:07:02.404Z,94540.67
2018-05-14T13:09:31.112Z,94547.57
2018-05-14T13:11:59.680Z,94543.61
2018-05-14T13:14:28.244Z,94536.28
2018-05-14T13:16:56.817Z,94531.47
2018-05-14T13:19:25.636Z,94528.13
2018-05-14T13:21:54.234Z,94533.73
2018-05-14T13:24:22.819Z,94522.42
2018-05-14T13:26:51.439Z,94522.73
2018-05-14T13:29:20.032Z,94521.45
2018-05-14T13:31:48.691Z,94518.38
2018-05-14T13:34:17.329Z,94515.66
2018-05-14T13:36:45.905Z,94516.80
2018-05-14T13:39:14.485Z,94511.05
2018-05-14T13:41:43.061Z,94503.44
2018-05-14T13:44:11.634Z,94504.09
2018-05-14T13:46:40.406Z,94496.70
2018-05-14T13:49:08.998Z,94504.04
2018-05-14T13:51:37.563Z,94501.05
2018-05-14T13:54:06.517Z,94494.33
2018-05-14T13:56:35.118Z,94502.81
2018-05-14T13:59:03.408Z,94497.41
2018-05-14T14:01:31.988Z,94502.62
2018-05-14T14:04:00.566Z,94505.34
2018-05-14T14:06:29.148Z,94512.24
2018-05-14T14:08:58.232Z,94516.19
2018-05-14T14:11:26.794Z,94519.80
2018-05-14T14:13:55.554Z,94519.47
2018-05-14T14:16:24.119Z,94527.50
2018-05-14T14:18:52.758Z,94532.40
2018-05-14T14:21:21.324Z,94533.94
2018-05-14T14:23:50.155Z,94534.96
2018-05-14T14:26:18.676Z,94533.15
2018-05-14T14:28:47.230Z,94528.18
2018-05-14T14:31:15.520Z,94533.24
2018-05-14T14:33:44.074Z,94536.05
2018-05-14T14:36:12.695Z,94534.95
2018-05-14T14:38:41.391Z,94529.20
2018-05-14T14:41:09.973Z,94530.42
2018-05-14T14:43:38.538Z,94534.66
2018-05-14T14:46:06.746Z,94535.73
2018-05-14T14:48:35.292Z,94530.83
2018-05-14T14:51:03.863Z,94535.23
2018-05-14T14:53:32.501Z,94532.80
2018-05-14T14:56:01.279Z,94530.49
2018-05-14T14:58:29.828Z,94529.03
2018-05-14T15:00:58.394Z,94525.69
2018-05-14T15:03:26.937Z,94528.59
2018-05-14T15:05:55.499Z,94535.91
2018-05-14T15:08:24.077Z,94539.08
2018-05-14T15:10:52.655Z,94536.41
2018-05-14T15:13:21.751Z,94536.48
2018-05-14T15:15:50.372Z,94536.58
2018-05-14T15:18:18.975Z,94532.34
2018-05-14T15:20:47.632Z,94529.59
2018-05-14T15:23:16.224Z,94528.08
2018-05-14T15:25:44.785Z,94532.27
2018-05-14T15:28:13.353Z,94533.86
2018-05-14T15:30:41.966Z,94527.86
2018-05-14T15:33:10.528Z,94533.02
2018-05-14T15:35:39.095Z,94531.86
2018-05-14T15:38:07.723Z,94533.24
2018-05-14T15:40:36.292Z,94527.87
2018-05-14T15:43:04.847Z,94527.11
2018-05-14T15:45:33.409Z,94526.36
2018-05-14T15:48:01.987Z,94529.51
2018-05-14T15:50:30.568Z,94526.74
2018-05-14T15:52:59.228Z,94525.27
2018-05-14T15:55:28.637Z,94517.01
2018-05-14T15:57:57.225Z,94522.10
2018-05-14T16:00:25.858Z,94510.00
2018-05-14T16:02:54.420Z,94512.94
2018-05-14T16:05:22.987Z,94505.58
2018-05-14T16:07:51.583Z,94497.61
2018-05-14T16:10:19.813Z,94492.04
2018-05-14T16:12:48.374Z,94492.70
2018-05-14T16:15:16.954Z,94494.61
2018-05-14T16:17:45.938Z,94502.36
2018-05-14T16:20:15.387Z,94507.43
2018-05-14T16:22:43.968Z,94510.09
2018-05-14T16:25:12.527Z,94519.02
2018-05-14T16:27:41.097Z,94517.30
2018-05-14T16:30:09.804Z,94514.61
2018-05-14T16:32:38.540Z,94530.08
2018-05-14T16:35:06.458Z,94531.80
2018-05-14T16:37:35.044Z,94528.87
2018-05-14T16:40:03.280Z,94534.07
2018-05-14T16:42:32.003Z,94535.68
2018-05-14T16:45:00.587Z,94537.80
2018-05-14T16:47:29.152Z,94531.14
2018-05-14T16:49:57.722Z,94531.55
2018-05-14T16:52:26.290Z,94532.08
2018-05-14T16:54:54.929Z,94534.70
2018-05-14T16:57:23.488Z,94543.21
2018-05-14T16:59:52.078Z,94536.44
2018-05-14T17:02:20.656Z,94541.59
2018-05-14T17:04:49.234Z,94544.78
2018-05-14T17:07:17.800Z,94546.25
2018-05-14T17:09:46.411Z,94537.98
2018-05-14T17:12:14.970Z,94546.73
2018-05-14T17:14:43.541Z,94540.73
2018-05-14T17:17:12.136Z,94544.89
2018-05-14T17:19:40.747Z,94544.77
2018-05-14T17:22:09.303Z,94557.69
2018-05-14T17:24:38.843Z,94568.45
2018-05-14T17:27:07.467Z,94575.13
2018-05-14T17:29:36.068Z,94577.77
2018-05-14T17:32:03.973Z,94595.48
2018-05-14T17:34:32.543Z,94593.22
2018-05-14T17:37:01.832Z,94598.80
2018-05-14T17:39:30.396Z,94596.66
2018-05-14T17:41:58.994Z,94603.16
2018-05-14T17:44:27.633Z,94601.56
2018-05-14T17:46:56.258Z,94615.67
2018-05-14T17:49:25.031Z,94626.70
2018-05-14T17:51:53.632Z,94630.02
2018-05-14T17:54:22.229Z,94623.62
2018-05-14T17:56:50.843Z,94629.15
2018-05-14T17:59:19.508Z,94628.84
2018-05-14T18:01:48.217Z,94635.16
2018-05-14T18:04:16.813Z,94644.04
2018-05-14T18:06:45.374Z,94644.83
2018-05-14T18:09:14.003Z,94647.46
2018-05-14T18:11:42.599Z,94644.09
2018-05-14T18:14:11.193Z,94646.93
2018-05-14T18:16:39.859Z,94647.33
2018-05-14T18:19:08.704Z,94658.61
2018-05-14T18:21:38.020Z,94667.81
2018-05-14T18:24:06.620Z,94676.89
2018-05-14T18:26:41.200Z,94679.30
2018-05-14T18:29:09.774Z,94683.81
2018-05-14T18:31:43.798Z,94682.08
2018-05-14T18:34:22.493Z,94676.98
2018-05-14T18:36:51.084Z,94681.00
2018-05-14T18:39:19.660Z,94681.58
2018-05-14T18:41:49.225Z,94679.72
2018-05-14T18:44:17.708Z,94676.27
2018-05-14T18:46:46.314Z,94678.50
2018-05-14T18:49:14.911Z,94692.97
2018-05-14T18:51:43.485Z,94685.80
2018-05-14T18:54:12.118Z,94694.32
2018-05-14T18:56:40.717Z,94697.08
2018-05-14T18:59:09.309Z,94700.91
2018-05-14T19:01:37.930Z,94699.19
2018-05-14T19:04:06.514Z,94700.36
2018-05-14T19:06:35.811Z,94704.84
2018-05-14T19:09:03.502Z,94706.17
2018-05-14T19:11:37.609Z,94703.52
2018-05-14T19:14:06.203Z,94708.28
2018-05-14T19:16:40.174Z,94707.78
2018-05-14T19:19:08.735Z,94710.39
